sensor_id;sensor_type;location;lat;lon;timestamp;pressure;altitude;pressure_sealevel;temperature;humidity
77281;BME280;66339;47.262;17.144;2023-04-23T00:00:38;99881.59;;;20.55;52.13
77281;BME280;66339;47.262;17.144;2023-04-23T00:03:08;99885.34;;;20.54;52.12
77281;BME280;66339;47.262;17.144;2023-04-23T00:05:36;99882.38;;;20.56;52.08
77281;BME280;66339;47.262;17.144;2023-04-23T00:08:03;99875.19;;;20.51;52.19
77281;BME280;66339;47.262;17.144;2023-04-23T00:10:37;99880.50;;;20.56;52.37
77281;BME280;66339;47.262;17.144;2023-04-23T00:13:04;99878.37;;;20.53;52.34
77281;BME280;66339;47.262;17.144;2023-04-23T00:15:31;99868.75;;;20.52;52.35
77281;BME280;66339;47.262;17.144;2023-04-23T00:18:01;99866.09;;;20.47;52.55
77281;BME280;66339;47.262;17.144;2023-04-23T00:20:31;99859.59;;;20.53;52.40
77281;BME280;66339;47.262;17.144;2023-04-23T00:23:01;99866.09;;;20.47;52.43
77281;BME280;66339;47.262;17.144;2023-04-23T00:25:30;99861.81;;;20.46;52.45
77281;BME280;66339;47.262;17.144;2023-04-23T00:28:00;99857.84;;;20.44;52.49
77281;BME280;66339;47.262;17.144;2023-04-23T00:30:28;99854.84;;;20.45;52.31
77281;BME280;66339;47.262;17.144;2023-04-23T00:32:56;99855.44;;;20.42;52.65
77281;BME280;66339;47.262;17.144;2023-04-23T00:35:24;99853.25;;;20.44;52.46
77281;BME280;66339;47.262;17.144;2023-04-23T00:37:55;99844.41;;;20.44;52.38
77281;BME280;66339;47.262;17.144;2023-04-23T00:40:22;99844.91;;;20.46;52.29
77281;BME280;66339;47.262;17.144;2023-04-23T00:42:49;99853.25;;;20.44;52.35
77281;BME280;66339;47.262;17.144;2023-04-23T00:45:19;99845.19;;;20.44;52.53
77281;BME280;66339;47.262;17.144;2023-04-23T00:47:49;99840.91;;;20.43;52.38
77281;BME280;66339;47.262;17.144;2023-04-23T00:50:16;99845.47;;;20.43;52.43
77281;BME280;66339;47.262;17.144;2023-04-23T00:52:50;99844.47;;;20.39;52.45
77281;BME280;66339;47.262;17.144;2023-04-23T00:55:17;99846.09;;;20.40;52.39
77281;BME280;66339;47.262;17.144;2023-04-23T00:57:46;99843.41;;;20.40;52.33
77281;BME280;66339;47.262;17.144;2023-04-23T01:00:13;99836.13;;;20.40;52.34
77281;BME280;66339;47.262;17.144;2023-04-23T01:02:47;99834.50;;;20.39;52.31
77281;BME280;66339;47.262;17.144;2023-04-23T01:05:15;99830.53;;;20.37;52.37
77281;BME280;66339;47.262;17.144;2023-04-23T01:07:46;99835.91;;;20.37;52.48
77281;BME280;66339;47.262;17.144;2023-04-23T01:10:16;99847.47;;;20.37;52.38
77281;BME280;66339;47.262;17.144;2023-04-23T01:12:45;99841.28;;;20.37;52.36
77281;BME280;66339;47.262;17.144;2023-04-23T01:15:12;99845.88;;;20.36;52.44
77281;BME280;66339;47.262;17.144;2023-04-23T01:17:52;99842.66;;;20.34;52.40
77281;BME280;66339;47.262;17.144;2023-04-23T01:20:19;99835.41;;;20.34;52.39
77281;BME280;66339;47.262;17.144;2023-04-23T01:22:45;99834.59;;;20.34;52.28
77281;BME280;66339;47.262;17.144;2023-04-23T01:25:16;99836.50;;;20.33;52.38
77281;BME280;66339;47.262;17.144;2023-04-23T01:27:44;99833.81;;;20.33;52.35
77281;BME280;66339;47.262;17.144;2023-04-23T01:30:11;99828.75;;;20.32;52.48
77281;BME280;66339;47.262;17.144;2023-04-23T01:32:41;99819.59;;;20.33;52.33
77281;BME280;66339;47.262;17.144;2023-04-23T01:35:08;99824.38;;;20.36;52.53
77281;BME280;66339;47.262;17.144;2023-04-23T01:37:36;99825.75;;;20.33;52.29
77281;BME280;66339;47.262;17.144;2023-04-23T01:40:05;99822.75;;;20.35;52.47
77281;BME280;66339;47.262;17.144;2023-04-23T01:42:32;99822.28;;;20.33;52.32
77281;BME280;66339;47.262;17.144;2023-04-23T01:45:05;99818.00;;;20.32;52.38
77281;BME280;66339;47.262;17.144;2023-04-23T01:47:35;99817.19;;;20.31;52.36
77281;BME280;66339;47.262;17.144;2023-04-23T01:50:03;99816.38;;;20.31;52.47
77281;BME280;66339;47.262;17.144;2023-04-23T01:52:33;99815.31;;;20.32;52.39
77281;BME280;66339;47.262;17.144;2023-04-23T01:55:03;99826.56;;;20.34;52.27
77281;BME280;66339;47.262;17.144;2023-04-23T01:57:35;99820.69;;;20.32;52.35
77281;BME280;66339;47.262;17.144;2023-04-23T02:00:11;99819.06;;;20.31;52.34
77281;BME280;66339;47.262;17.144;2023-04-23T02:02:40;99822.75;;;20.35;52.35
77281;BME280;66339;47.262;17.144;2023-04-23T02:05:15;99819.59;;;20.33;52.26
77281;BME280;66339;47.262;17.144;2023-04-23T02:07:43;99821.47;;;20.32;52.49
77281;BME280;66339;47.262;17.144;2023-04-23T02:10:14;99816.38;;;20.31;52.52
77281;BME280;66339;47.262;17.144;2023-04-23T02:12:42;99821.75;;;20.31;52.30
77281;BME280;66339;47.262;17.144;2023-04-23T02:15:15;99827.72;;;20.28;52.66
77281;BME280;66339;47.262;17.144;2023-04-23T02:17:41;99815.38;;;20.27;52.33
77281;BME280;66339;47.262;17.144;2023-04-23T02:20:11;99810.00;;;20.27;52.28
77281;BME280;66339;47.262;17.144;2023-04-23T02:22:39;99825.31;;;20.26;52.29
77281;BME280;66339;47.262;17.144;2023-04-23T02:25:10;99824.31;;;20.22;52.47
77281;BME280;66339;47.262;17.144;2023-04-23T02:27:40;99825.09;;;20.23;52.43
77281;BME280;66339;47.262;17.144;2023-04-23T02:30:10;99830.47;;;20.23;52.31
77281;BME280;66339;47.262;17.144;2023-04-23T02:32:37;99811.69;;;20.23;52.36
77281;BME280;66339;47.262;17.144;2023-04-23T02:35:04;99825.09;;;20.23;52.32
77281;BME280;66339;47.262;17.144;2023-04-23T02:37:35;99820.84;;;20.22;52.41
77281;BME280;66339;47.262;17.144;2023-04-23T02:40:02;99824.31;;;20.22;52.48
77281;BME280;66339;47.262;17.144;2023-04-23T02:42:32;99828.31;;;20.25;52.28
77281;BME280;66339;47.262;17.144;2023-04-23T02:45:01;99826.69;;;20.24;52.30
77281;BME280;66339;47.262;17.144;2023-04-23T02:47:37;99819.53;;;20.19;52.40
77281;BME280;66339;47.262;17.144;2023-04-23T02:50:07;99828.09;;;20.21;52.45
77281;BME280;66339;47.262;17.144;2023-04-23T02:52:37;99821.94;;;20.21;52.39
77281;BME280;66339;47.262;17.144;2023-04-23T02:55:11;99821.94;;;20.21;52.33
77281;BME280;66339;47.262;17.144;2023-04-23T02:57:41;99820.31;;;20.20;52.55
77281;BME280;66339;47.262;17.144;2023-04-23T03:00:11;99826.22;;;20.22;52.24
77281;BME280;66339;47.262;17.144;2023-04-23T03:02:40;99820.03;;;20.21;52.42
77281;BME280;66339;47.262;17.144;2023-04-23T03:05:12;99822.22;;;20.19;52.43
77281;BME280;66339;47.262;17.144;2023-04-23T03:07:40;99819.25;;;20.21;52.25
77281;BME280;66339;47.262;17.144;2023-04-23T03:10:07;99815.78;;;20.20;52.30
77281;BME280;66339;47.262;17.144;2023-04-23T03:12:34;99815.78;;;20.20;52.49
77281;BME280;66339;47.262;17.144;2023-04-23T03:15:03;99816.03;;;20.19;52.38
77281;BME280;66339;47.262;17.144;2023-04-23T03:17:33;99809.31;;;20.21;52.73
77281;BME280;66339;47.262;17.144;2023-04-23T03:20:05;99815.47;;;20.22;52.33
77281;BME280;66339;47.262;17.144;2023-04-23T03:22:36;99805.50;;;20.22;52.31
77281;BME280;66339;47.262;17.144;2023-04-23T03:25:06;99809.09;;;20.18;52.35
77281;BME280;66339;47.262;17.144;2023-04-23T03:27:37;99817.94;;;20.18;52.30
77281;BME280;66339;47.262;17.144;2023-04-23T03:30:06;99816.34;;;20.17;52.35
77281;BME280;66339;47.262;17.144;2023-04-23T03:32:37;99817.72;;;20.15;52.29
77281;BME280;66339;47.262;17.144;2023-04-23T03:35:06;99818.50;;;20.15;52.28
77281;BME280;66339;47.262;17.144;2023-04-23T03:37:35;99817.22;;;20.13;52.27
77281;BME280;66339;47.262;17.144;2023-04-23T03:40:02;99817.72;;;20.15;52.36
77281;BME280;66339;47.262;17.144;2023-04-23T03:42:32;99814.53;;;20.13;52.23
77281;BME280;66339;47.262;17.144;2023-04-23T03:44:59;99818.28;;;20.11;52.29
77281;BME280;66339;47.262;17.144;2023-04-23T03:47:27;99815.12;;;20.09;52.27
77281;BME280;66339;47.262;17.144;2023-04-23T03:49:53;99816.41;;;20.12;52.24
77281;BME280;66339;47.262;17.144;2023-04-23T03:52:20;99811.34;;;20.10;52.33
77281;BME280;66339;47.262;17.144;2023-04-23T03:54:53;99812.13;;;20.11;52.30
77281;BME280;66339;47.262;17.144;2023-04-23T03:57:20;99811.84;;;20.13;52.22
77281;BME280;66339;47.262;17.144;2023-04-23T03:59:48;99807.56;;;20.11;52.25
77281;BME280;66339;47.262;17.144;2023-04-23T04:02:15;99808.97;;;20.09;52.31
77281;BME280;66339;47.262;17.144;2023-04-23T04:04:45;99812.13;;;20.11;52.17
77281;BME280;66339;47.262;17.144;2023-04-23T04:07:13;99803.28;;;20.10;52.17
77281;BME280;66339;47.262;17.144;2023-04-23T04:09:39;99801.38;;;20.11;52.27
77281;BME280;66339;47.262;17.144;2023-04-23T04:12:10;99801.13;;;20.13;52.22
77281;BME280;66339;47.262;17.144;2023-04-23T04:14:36;99792.53;;;20.10;52.22
77281;BME280;66339;47.262;17.144;2023-04-23T04:17:06;99802.50;;;20.10;52.22
77281;BME280;66339;47.262;17.144;2023-04-23T04:19:37;99800.59;;;20.10;52.26
77281;BME280;66339;47.262;17.144;2023-04-23T04:22:09;99802.78;;;20.08;52.38
77281;BME280;66339;47.262;17.144;2023-04-23T04:24:36;99810.31;;;20.06;52.44
77281;BME280;66339;47.262;17.144;2023-04-23T04:27:03;99811.91;;;20.07;52.52
77281;BME280;66339;47.262;17.144;2023-04-23T04:29:32;99818.91;;;20.08;52.55
77281;BME280;66339;47.262;17.144;2023-04-23T04:31:59;99819.09;;;20.12;52.31
77281;BME280;66339;47.262;17.144;2023-04-23T04:34:28;99811.56;;;20.14;52.28
77281;BME280;66339;47.262;17.144;2023-04-23T04:36:58;99817.28;;;20.07;52.56
77281;BME280;66339;47.262;17.144;2023-04-23T04:39:26;99816.41;;;20.12;52.28
77281;BME280;66339;47.262;17.144;2023-04-23T04:41:54;99816.22;;;20.08;52.37
77281;BME280;66339;47.262;17.144;2023-04-23T04:44:24;99819.47;;;20.05;52.65
77281;BME280;66339;47.262;17.144;2023-04-23T04:46:56;99818.91;;;20.08;52.43
77281;BME280;66339;47.262;17.144;2023-04-23T04:49:23;99823.66;;;20.11;52.45
77281;BME280;66339;47.262;17.144;2023-04-23T04:51:51;99825.84;;;20.09;52.37
77281;BME280;66339;47.262;17.144;2023-04-23T04:54:23;99821.06;;;20.06;52.32
77281;BME280;66339;47.262;17.144;2023-04-23T04:56:55;99821.84;;;20.07;52.37
77281;BME280;66339;47.262;17.144;2023-04-23T04:59:29;99827.00;;;20.03;52.72
77281;BME280;66339;47.262;17.144;2023-04-23T05:01:59;99831.81;;;20.06;52.51
77281;BME280;66339;47.262;17.144;2023-04-23T05:04:29;99829.12;;;20.06;52.72
77281;BME280;66339;47.262;17.144;2023-04-23T05:06:59;99828.03;;;20.07;52.96
77281;BME280;66339;47.262;17.144;2023-04-23T05:09:32;99830.72;;;20.07;53.19
77281;BME280;66339;47.262;17.144;2023-04-23T05:12:02;99837.03;;;20.17;52.56
77281;BME280;66339;47.262;17.144;2023-04-23T05:14:32;99827.31;;;20.21;52.42
77281;BME280;66339;47.262;17.144;2023-04-23T05:17:02;99835.84;;;20.23;52.41
77281;BME280;66339;47.262;17.144;2023-04-23T05:19:28;99830.69;;;20.26;52.37
77281;BME280;66339;47.262;17.144;2023-04-23T05:22:00;99836.28;;;20.30;52.49
77281;BME280;66339;47.262;17.144;2023-04-23T05:24:30;99835.19;;;20.31;52.54
77281;BME280;66339;47.262;17.144;2023-04-23T05:26:57;99840.19;;;20.38;52.53
77281;BME280;66339;47.262;17.144;2023-04-23T05:29:27;99836.94;;;20.41;52.51
77281;BME280;66339;47.262;17.144;2023-04-23T05:32:00;99840.63;;;20.45;52.57
77281;BME280;66339;47.262;17.144;2023-04-23T05:34:28;99840.56;;;20.50;52.46
77281;BME280;66339;47.262;17.144;2023-04-23T05:36:57;99842.16;;;20.51;52.38
77281;BME280;66339;47.262;17.144;2023-04-23T05:39:24;99841.87;;;20.52;52.21
77281;BME280;66339;47.262;17.144;2023-04-23T05:41:51;99843.97;;;20.55;52.36
77281;BME280;66339;47.262;17.144;2023-04-23T05:44:20;99848.75;;;20.58;52.35
77281;BME280;66339;47.262;17.144;2023-04-23T05:46:47;99844.47;;;20.57;52.18
77281;BME280;66339;47.262;17.144;2023-04-23T05:49:15;99844.97;;;20.59;52.30
77281;BME280;66339;47.262;17.144;2023-04-23T05:51:44;99839.88;;;20.58;52.63
77281;BME280;66339;47.262;17.144;2023-04-23T05:54:12;99848.75;;;20.58;52.69
77281;BME280;66339;47.262;17.144;2023-04-23T05:56:43;99842.56;;;20.58;52.57
77281;BME280;66339;47.262;17.144;2023-04-23T05:59:13;99850.34;;;20.59;52.82
77281;BME280;66339;47.262;17.144;2023-04-23T06:01:40;99848.75;;;20.58;52.55
77281;BME280;66339;47.262;17.144;2023-04-23T06:04:10;99845.78;;;20.60;52.60
77281;BME280;66339;47.262;17.144;2023-04-23T06:06:39;99846.34;;;20.57;52.00
77281;BME280;66339;47.262;17.144;2023-04-23T06:09:08;99849.34;;;20.55;52.37
77281;BME280;66339;47.262;17.144;2023-04-23T06:11:35;99850.41;;;20.54;52.57
77281;BME280;66339;47.262;17.144;2023-04-23T06:14:06;99848.84;;;20.53;52.83
77281;BME280;66339;47.262;17.144;2023-04-23T06:16:36;99856.31;;;20.56;52.89
77281;BME280;66339;47.262;17.144;2023-04-23T06:19:06;99852.03;;;20.55;52.74
77281;BME280;66339;47.262;17.144;2023-04-23T06:21:35;99845.56;;;20.56;51.95
77281;BME280;66339;47.262;17.144;2023-04-23T06:24:06;99847.16;;;20.57;51.99
77281;BME280;66339;47.262;17.144;2023-04-23T06:26:33;99852.53;;;20.57;52.08
77281;BME280;66339;47.262;17.144;2023-04-23T06:29:01;99857.31;;;20.61;52.38
77281;BME280;66339;47.262;17.144;2023-04-23T06:31:28;99857.53;;;20.64;52.47
77281;BME280;66339;47.262;17.144;2023-04-23T06:34:01;99854.13;;;20.58;52.93
77281;BME280;66339;47.262;17.144;2023-04-23T06:36:28;99850.75;;;20.67;52.33
77281;BME280;66339;47.262;17.144;2023-04-23T06:38:58;99849.06;;;20.71;52.24
77281;BME280;66339;47.262;17.144;2023-04-23T06:41:28;99849.59;;;20.73;52.28
77281;BME280;66339;47.262;17.144;2023-04-23T06:43:55;99851.19;;;20.74;52.24
77281;BME280;66339;47.262;17.144;2023-04-23T06:46:25;99850.06;;;20.75;52.68
77281;BME280;66339;47.262;17.144;2023-04-23T06:48:52;99853.78;;;20.79;52.58
77281;BME280;66339;47.262;17.144;2023-04-23T06:51:19;99855.16;;;20.76;52.79
77281;BME280;66339;47.262;17.144;2023-04-23T06:53:52;99850.59;;;20.77;52.61
77281;BME280;66339;47.262;17.144;2023-04-23T06:56:30;99857.56;;;20.78;52.42
77281;BME280;66339;47.262;17.144;2023-04-23T06:59:00;99851.69;;;20.76;52.29
77281;BME280;66339;47.262;17.144;2023-04-23T07:01:27;99857.06;;;20.76;52.25
77281;BME280;66339;47.262;17.144;2023-04-23T07:03:57;99844.69;;;20.75;52.31
77281;BME280;66339;47.262;17.144;2023-04-23T07:06:25;99842.63;;;20.72;52.34
77281;BME280;66339;47.262;17.144;2023-04-23T07:08:54;99846.38;;;20.71;52.52
77281;BME280;66339;47.262;17.144;2023-04-23T07:11:28;99834.03;;;20.70;52.57
77281;BME280;66339;47.262;17.144;2023-04-23T07:14:04;99832.47;;;20.69;53.15
77281;BME280;66339;47.262;17.144;2023-04-23T07:16:35;99826.50;;;20.72;53.06
77281;BME280;66339;47.262;17.144;2023-04-23T07:19:05;99829.19;;;20.72;52.95
77281;BME280;66339;47.262;17.144;2023-04-23T07:21:35;99820.13;;;20.68;52.94
77281;BME280;66339;47.262;17.144;2023-04-23T07:24:03;99820.13;;;20.68;50.50
77281;BME280;66339;47.262;17.144;2023-04-23T07:26:36;99816.34;;;20.69;51.24
77281;BME280;66339;47.262;17.144;2023-04-23T07:29:08;99824.41;;;20.69;51.91
77281;BME280;66339;47.262;17.144;2023-04-23T07:31:35;99823.28;;;20.70;50.34
77281;BME280;66339;47.262;17.144;2023-04-23T07:34:09;99817.34;;;20.73;50.72
77281;BME280;66339;47.262;17.144;2023-04-23T07:36:40;99824.09;;;20.70;50.82
77281;BME280;66339;47.262;17.144;2023-04-23T07:39:10;99824.28;;;20.74;47.22
77281;BME280;66339;47.262;17.144;2023-04-23T07:41:39;99829.25;;;20.67;48.14
77281;BME280;66339;47.262;17.144;2023-04-23T07:44:13;99817.91;;;20.70;48.64
77281;BME280;66339;47.262;17.144;2023-04-23T07:46:43;99816.75;;;20.76;48.79
77281;BME280;66339;47.262;17.144;2023-04-23T07:49:15;99811.37;;;20.76;47.19
77281;BME280;66339;47.262;17.144;2023-04-23T07:51:57;99812.97;;;20.77;49.14
77281;BME280;66339;47.262;17.144;2023-04-23T07:54:27;99814.06;;;20.76;48.77
77281;BME280;66339;47.262;17.144;2023-04-23T07:56:58;99817.53;;;20.76;49.13
77281;BME280;66339;47.262;17.144;2023-04-23T07:59:28;99812.38;;;20.80;48.25
77281;BME280;66339;47.262;17.144;2023-04-23T08:01:58;99802.41;;;20.80;49.74
77281;BME280;66339;47.262;17.144;2023-04-23T08:04:31;99812.88;;;20.82;49.55
77281;BME280;66339;47.262;17.144;2023-04-23T08:06:59;99810.16;;;20.82;49.99
77281;BME280;66339;47.262;17.144;2023-04-23T08:09:30;99804.22;;;20.85;49.82
77281;BME280;66339;47.262;17.144;2023-04-23T08:12:00;99806.31;;;20.88;49.46
77281;BME280;66339;47.262;17.144;2023-04-23T08:14:27;99801.53;;;20.85;49.58
77281;BME280;66339;47.262;17.144;2023-04-23T08:17:12;99802.63;;;20.84;49.46
77281;BME280;66339;47.262;17.144;2023-04-23T08:19:44;99801.91;;;20.78;48.57
77281;BME280;66339;47.262;17.144;2023-04-23T08:22:16;99790.88;;;20.80;49.34
77281;BME280;66339;47.262;17.144;2023-04-23T08:24:47;99807.78;;;20.80;49.67
77281;BME280;66339;47.262;17.144;2023-04-23T08:27:15;99801.03;;;20.83;49.70
77281;BME280;66339;47.262;17.144;2023-04-23T08:29:42;99798.84;;;20.85;49.73
77281;BME280;66339;47.262;17.144;2023-04-23T08:32:12;99798.03;;;20.84;49.90
77281;BME280;66339;47.262;17.144;2023-04-23T08:34:42;99805.00;;;20.86;50.05
77281;BME280;66339;47.262;17.144;2023-04-23T08:37:09;99802.91;;;20.82;50.24
77281;BME280;66339;47.262;17.144;2023-04-23T08:39:59;99799.41;;;20.82;50.54
77281;BME280;66339;47.262;17.144;2023-04-23T08:42:40;99798.62;;;20.81;50.46
77281;BME280;66339;47.262;17.144;2023-04-23T08:45:11;99796.25;;;20.80;50.01
77281;BME280;66339;47.262;17.144;2023-04-23T08:47:42;99799.94;;;20.84;49.97
77281;BME280;66339;47.262;17.144;2023-04-23T08:50:29;99798.84;;;20.85;49.41
77281;BME280;66339;47.262;17.144;2023-04-23T08:53:03;99795.47;;;20.79;50.04
77281;BME280;66339;47.262;17.144;2023-04-23T08:55:33;99788.88;;;20.86;49.91
77281;BME280;66339;47.262;17.144;2023-04-23T08:58:07;99793.47;;;20.85;49.88
77281;BME280;66339;47.262;17.144;2023-04-23T09:00:37;99790.19;;;20.88;49.80
77281;BME280;66339;47.262;17.144;2023-04-23T09:03:11;99788.09;;;20.85;49.81
77281;BME280;66339;47.262;17.144;2023-04-23T09:05:39;99780.03;;;20.85;49.83
77281;BME280;66339;47.262;17.144;2023-04-23T09:08:06;99779.13;;;20.90;49.56
77281;BME280;66339;47.262;17.144;2023-04-23T09:10:38;99779.13;;;20.90;49.48
77281;BME280;66339;47.262;17.144;2023-04-23T09:13:08;99775.62;;;20.89;49.50
77281;BME280;66339;47.262;17.144;2023-04-23T09:15:43;99778.13;;;20.86;49.63
77281;BME280;66339;47.262;17.144;2023-04-23T09:18:15;99769.56;;;20.83;49.49
77281;BME280;66339;47.262;17.144;2023-04-23T09:20:43;99771.16;;;20.84;49.37
77281;BME280;66339;47.262;17.144;2023-04-23T09:23:16;99775.16;;;20.87;49.27
77281;BME280;66339;47.262;17.144;2023-04-23T09:25:50;99766.59;;;20.85;49.19
77281;BME280;66339;47.262;17.144;2023-04-23T09:28:20;99769.56;;;20.83;49.01
77281;BME280;66339;47.262;17.144;2023-04-23T09:31:00;99767.09;;;20.87;48.80
77281;BME280;66339;47.262;17.144;2023-04-23T09:33:29;99763.88;;;20.85;48.05
77281;BME280;66339;47.262;17.144;2023-04-23T09:35:56;99760.41;;;20.84;47.90
77281;BME280;66339;47.262;17.144;2023-04-23T09:38:28;99765.00;;;20.84;47.93
77281;BME280;66339;47.262;17.144;2023-04-23T09:40:56;99757.41;;;20.86;47.89
77281;BME280;66339;47.262;17.144;2023-04-23T09:43:24;99759.63;;;20.84;47.75
77281;BME280;66339;47.262;17.144;2023-04-23T09:45:55;99754.84;;;20.81;47.62
77281;BME280;66339;47.262;17.144;2023-04-23T09:48:23;99757.63;;;20.76;48.03
77281;BME280;66339;47.262;17.144;2023-04-23T09:50:57;99748.16;;;20.78;48.13
77281;BME280;66339;47.262;17.144;2023-04-23T09:53:29;99746.47;;;20.82;48.39
77281;BME280;66339;47.262;17.144;2023-04-23T09:56:12;99745.28;;;20.89;48.70
77281;BME280;66339;47.262;17.144;2023-04-23T09:58:40;99743.09;;;20.91;48.60
77281;BME280;66339;47.262;17.144;2023-04-23T10:01:10;99737.91;;;20.94;48.58
77281;BME280;66339;47.262;17.144;2023-04-23T10:03:41;99746.94;;;20.98;48.51
77281;BME280;66339;47.262;17.144;2023-04-23T10:06:16;99747.16;;;21.02;48.42
77281;BME280;66339;47.262;17.144;2023-04-23T10:09:03;99736.00;;;21.08;48.29
77281;BME280;66339;47.262;17.144;2023-04-23T10:11:31;99735.22;;;21.08;48.06
77281;BME280;66339;47.262;17.144;2023-04-23T10:14:01;99735.53;;;21.06;48.36
77281;BME280;66339;47.262;17.144;2023-04-23T10:16:35;99731.72;;;21.07;48.31
77281;BME280;66339;47.262;17.144;2023-04-23T10:19:17;99736.50;;;21.11;48.35
77281;BME280;66339;47.262;17.144;2023-04-23T10:21:52;99728.94;;;21.13;48.44
77281;BME280;66339;47.262;17.144;2023-04-23T10:24:43;99735.91;;;21.14;48.47
77281;BME280;66339;47.262;17.144;2023-04-23T10:27:14;99728.94;;;21.13;48.47
77281;BME280;66339;47.262;17.144;2023-04-23T10:30:06;99721.97;;;21.12;48.44
77281;BME280;66339;47.262;17.144;2023-04-23T10:32:39;99727.16;;;21.08;48.66
77281;BME280;66339;47.262;17.144;2023-04-23T10:35:08;99715.59;;;21.07;48.69
77281;BME280;66339;47.262;17.144;2023-04-23T10:37:38;99715.00;;;21.11;48.74
77281;BME280;66339;47.262;17.144;2023-04-23T10:40:13;99707.53;;;21.07;48.93
77281;BME280;66339;47.262;17.144;2023-04-23T10:42:43;99717.69;;;21.11;48.93
77281;BME280;66339;47.262;17.144;2023-04-23T10:45:20;99709.63;;;21.11;49.22
77281;BME280;66339;47.262;17.144;2023-04-23T10:47:52;99705.84;;;21.12;49.14
77281;BME280;66339;47.262;17.144;2023-04-23T10:50:27;99703.63;;;21.14;49.03
77281;BME280;66339;47.262;17.144;2023-04-23T10:53:01;99707.41;;;21.13;48.99
77281;BME280;66339;47.262;17.144;2023-04-23T10:55:31;99698.88;;;21.11;49.04
77281;BME280;66339;47.262;17.144;2023-04-23T10:58:02;99709.78;;;21.14;49.19
77281;BME280;66339;47.262;17.144;2023-04-23T11:00:44;99703.72;;;21.22;48.84
77281;BME280;66339;47.262;17.144;2023-04-23T11:03:35;99700.06;;;21.18;48.95
77281;BME280;66339;47.262;17.144;2023-04-23T11:06:49;99694.84;;;21.22;48.63
77281;BME280;66339;47.262;17.144;2023-04-23T11:11:54;99700.41;;;21.25;48.83
77281;BME280;66339;47.262;17.144;2023-04-23T11:14:36;99697.25;;;21.23;48.86
77281;BME280;66339;47.262;17.144;2023-04-23T11:17:03;99692.06;;;21.27;48.79
77281;BME280;66339;47.262;17.144;2023-04-23T11:19:36;99694.75;;;21.27;48.77
77281;BME280;66339;47.262;17.144;2023-04-23T11:22:11;99694.63;;;21.32;48.45
77281;BME280;66339;47.262;17.144;2023-04-23T11:24:42;99688.47;;;21.31;48.61
77281;BME280;66339;47.262;17.144;2023-04-23T11:27:16;99690.06;;;21.46;48.49
77281;BME280;66339;47.262;17.144;2023-04-23T11:29:47;99684.22;;;21.53;48.30
77281;BME280;66339;47.262;17.144;2023-04-23T11:32:17;99687.44;;;21.55;48.02
77281;BME280;66339;47.262;17.144;2023-04-23T11:34:47;99677.97;;;21.58;47.93
77281;BME280;66339;47.262;17.144;2023-04-23T11:37:15;99682.84;;;21.55;47.89
77281;BME280;66339;47.262;17.144;2023-04-23T11:39:46;99677.03;;;21.62;47.50
77281;BME280;66339;47.262;17.144;2023-04-23T11:42:17;99676.13;;;21.67;47.22
77281;BME280;66339;47.262;17.144;2023-04-23T11:44:55;99672.03;;;21.69;46.89
77281;BME280;66339;47.262;17.144;2023-04-23T11:47:28;99673.28;;;21.72;47.05
77281;BME280;66339;47.262;17.144;2023-04-23T11:49:55;99680.16;;;21.78;46.87
77281;BME280;66339;47.262;17.144;2023-04-23T11:52:23;99669.75;;;21.85;46.35
77281;BME280;66339;47.262;17.144;2023-04-23T11:54:58;99659.59;;;21.82;46.35
77281;BME280;66339;47.262;17.144;2023-04-23T11:57:35;99675.16;;;21.85;46.35
77281;BME280;66339;47.262;17.144;2023-04-23T12:00:14;99668.03;;;21.89;45.96
77281;BME280;66339;47.262;17.144;2023-04-23T12:02:49;99677.34;;;21.83;46.27
77281;BME280;66339;47.262;17.144;2023-04-23T12:05:38;99677.94;;;21.80;46.60
77281;BME280;66339;47.262;17.144;2023-04-23T12:08:16;99672.91;;;21.87;46.58
77281;BME280;66339;47.262;17.144;2023-04-23T12:10:50;99671.38;;;21.72;47.19
77281;BME280;66339;47.262;17.144;2023-04-23T12:13:20;99670.38;;;21.82;46.67
77281;BME280;66339;47.262;17.144;2023-04-23T12:15:52;99658.44;;;21.74;46.32
77281;BME280;66339;47.262;17.144;2023-04-23T12:18:27;99652.78;;;21.85;45.94
77281;BME280;66339;47.262;17.144;2023-04-23T12:20:54;99650.41;;;21.83;45.79
77281;BME280;66339;47.262;17.144;2023-04-23T12:23:27;99651.88;;;21.89;45.62
77281;BME280;66339;47.262;17.144;2023-04-23T12:25:57;99642.84;;;21.85;45.45
77281;BME280;66339;47.262;17.144;2023-04-23T12:28:26;99642.84;;;21.85;45.63
77281;BME280;66339;47.262;17.144;2023-04-23T12:30:57;99648.84;;;21.82;45.70
77281;BME280;66339;47.262;17.144;2023-04-23T12:33:28;99642.47;;;21.78;45.62
77281;BME280;66339;47.262;17.144;2023-04-23T12:35:56;99635.84;;;21.84;45.54
77281;BME280;66339;47.262;17.144;2023-04-23T12:38:28;99628.69;;;21.79;45.87
77281;BME280;66339;47.262;17.144;2023-04-23T12:41:04;99626.56;;;21.68;46.09
77281;BME280;66339;47.262;17.144;2023-04-23T12:43:34;99614.13;;;21.80;45.75
77281;BME280;66339;47.262;17.144;2023-04-23T12:46:08;99626.78;;;21.80;45.86
77281;BME280;66339;47.262;17.144;2023-04-23T12:48:39;99624.00;;;21.85;45.64
77281;BME280;66339;47.262;17.144;2023-04-23T12:51:06;99624.00;;;21.85;45.85
77281;BME280;66339;47.262;17.144;2023-04-23T12:53:33;99621.63;;;21.92;45.74
77281;BME280;66339;47.262;17.144;2023-04-23T12:56:07;99619.69;;;21.84;45.75
77281;BME280;66339;47.262;17.144;2023-04-23T12:58:36;99622.50;;;22.01;45.47
77281;BME280;66339;47.262;17.144;2023-04-23T13:01:06;99620.22;;;21.95;45.81
77281;BME280;66339;47.262;17.144;2023-04-23T13:03:37;99617.41;;;22.00;45.59
77281;BME280;66339;47.262;17.144;2023-04-23T13:06:08;99619.00;;;22.01;45.44
77281;BME280;66339;47.262;17.144;2023-04-23T13:08:36;99603.47;;;21.98;45.60
77281;BME280;66339;47.262;17.144;2023-04-23T13:11:05;99601.22;;;21.91;45.79